createdAt,value
2023-05-09T00:02:02.322Z,13.70
2023-05-09T00:04:35.515Z,13.60
2023-05-09T00:07:05.967Z,13.40
2023-05-09T00:09:35.922Z,13.40
2023-05-09T00:12:05.872Z,13.40
2023-05-09T00:14:36.225Z,13.30
2023-05-09T00:17:06.065Z,13.40
2023-05-09T00:19:39.284Z,13.40
2023-05-09T00:22:09.342Z,13.40
2023-05-09T00:24:39.289Z,13.40
2023-05-09T00:27:10.066Z,13.40
2023-05-09T00:29:39.926Z,13.30
2023-05-09T00:32:09.859Z,13.40
2023-05-09T00:34:42.591Z,13.40
2023-05-09T00:37:12.699Z,13.80
2023-05-09T00:39:42.683Z,13.90
2023-05-09T00:42:12.568Z,14.10
2023-05-09T00:44:42.553Z,14.20
2023-05-09T00:47:12.416Z,14.30
2023-05-09T00:49:44.976Z,14.40
2023-05-09T00:52:14.892Z,14.30
2023-05-09T00:54:44.784Z,14.40
2023-05-09T00:57:14.680Z,14.40
2023-05-09T00:59:44.904Z,14.40
2023-05-09T01:02:15.228Z,14.50
2023-05-09T01:04:48.688Z,14.40
2023-05-09T01:07:26.683Z,14.20
2023-05-09T01:10:04.255Z,13.90
2023-05-09T01:12:40.545Z,13.80
2023-05-09T01:15:19.156Z,13.70
2023-05-09T01:17:56.632Z,13.70
2023-05-09T01:20:35.437Z,13.80
2023-05-09T01:23:21.808Z,13.90
2023-05-09T01:25:58.010Z,13.70
2023-05-09T01:28:59.179Z,13.80
2023-05-09T01:31:32.428Z,13.70
2023-05-09T01:34:06.936Z,13.70
2023-05-09T01:36:39.918Z,13.60
2023-05-09T01:39:14.137Z,13.60
2023-05-09T01:41:44.161Z,13.60
2023-05-09T01:44:17.222Z,13.60
2023-05-09T01:46:50.701Z,13.50
2023-05-09T01:49:22.858Z,13.50
2023-05-09T01:51:54.404Z,13.50
2023-05-09T01:54:26.644Z,13.60
2023-05-09T01:56:58.448Z,13.60
2023-05-09T01:59:29.959Z,13.60
2023-05-09T02:02:03.348Z,13.50
2023-05-09T02:04:34.203Z,13.30
2023-05-09T02:07:05.480Z,13.20
2023-05-09T02:09:36.039Z,13.00
2023-05-09T02:12:07.008Z,12.70
2023-05-09T02:14:37.059Z,12.30
2023-05-09T02:17:10.074Z,12.30
2023-05-09T02:19:40.027Z,12.30
2023-05-09T02:22:10.904Z,12.00
2023-05-09T02:24:41.094Z,11.80
2023-05-09T02:27:12.608Z,11.60
2023-05-09T02:29:49.314Z,11.50
2023-05-09T02:32:26.263Z,11.50
2023-05-09T02:34:57.456Z,11.50
2023-05-09T02:37:28.434Z,11.50
2023-05-09T02:39:58.881Z,11.60
2023-05-09T02:42:30.407Z,11.70
2023-05-09T02:45:00.521Z,11.90
2023-05-09T02:47:33.245Z,11.90
2023-05-09T02:50:03.972Z,12.10
2023-05-09T02:52:34.953Z,12.20
2023-05-09T02:55:06.607Z,12.40
2023-05-09T02:57:39.547Z,12.50
2023-05-09T03:00:12.343Z,12.60
2023-05-09T03:02:45.232Z,12.60
2023-05-09T03:05:19.324Z,12.60
2023-05-09T03:07:51.536Z,12.70
2023-05-09T03:10:21.596Z,12.90
2023-05-09T03:12:51.666Z,13.00
2023-05-09T03:15:21.870Z,13.30
2023-05-09T03:17:54.864Z,13.50
2023-05-09T03:20:25.542Z,13.70
2023-05-09T03:22:55.755Z,13.80
2023-05-09T03:25:26.502Z,13.90
2023-05-09T03:27:56.612Z,13.90
2023-05-09T03:30:27.382Z,13.70
2023-05-09T03:33:01.423Z,13.40
2023-05-09T03:35:31.388Z,13.20
2023-05-09T03:38:01.365Z,13.10
2023-05-09T03:40:31.579Z,13.20
2023-05-09T03:43:09.289Z,13.20
2023-05-09T03:45:39.942Z,13.20
2023-05-09T03:48:14.857Z,13.10
2023-05-09T03:50:49.818Z,13.10
2023-05-09T03:53:20.610Z,13.10
2023-05-09T03:55:51.778Z,13.10
2023-05-09T03:58:22.109Z,13.20
2023-05-09T04:00:52.330Z,13.40
2023-05-09T04:03:28.499Z,13.30
2023-05-09T04:05:59.240Z,13.10
2023-05-09T04:08:35.034Z,13.10
2023-05-09T04:11:06.721Z,13.10
2023-05-09T04:13:37.613Z,13.10
2023-05-09T04:16:16.006Z,12.90
2023-05-09T04:18:49.415Z,13.00
2023-05-09T04:21:19.345Z,13.20
2023-05-09T04:23:53.153Z,13.30
2023-05-09T04:26:31.609Z,13.30
2023-05-09T04:29:02.506Z,13.30
2023-05-09T04:31:32.973Z,13.50
2023-05-09T04:34:06.654Z,13.80
2023-05-09T04:36:38.141Z,14.10
2023-05-09T04:39:08.512Z,14.30
2023-05-09T04:41:39.750Z,14.40
2023-05-09T04:44:09.643Z,14.60
2023-05-09T04:46:39.701Z,14.80
2023-05-09T04:49:12.971Z,14.90
2023-05-09T04:51:42.910Z,14.60
2023-05-09T04:54:13.104Z,14.50
2023-05-09T04:56:44.353Z,14.20
2023-05-09T04:59:14.326Z,14.20
2023-05-09T05:01:44.409Z,14.30
2023-05-09T05:04:17.250Z,14.20
2023-05-09T05:06:47.358Z,14.20
2023-05-09T05:09:17.565Z,14.20
2023-05-09T05:11:59.560Z,14.20
2023-05-09T05:14:32.901Z,14.30
2023-05-09T05:17:03.073Z,14.50
2023-05-09T05:19:35.794Z,14.90
2023-05-09T05:22:07.683Z,15.20
2023-05-09T05:24:39.840Z,15.50
2023-05-09T05:27:09.821Z,16.00
2023-05-09T05:29:40.284Z,16.10
2023-05-09T05:32:10.883Z,16.40
2023-05-09T05:34:43.488Z,16.40
2023-05-09T05:37:13.471Z,16.60
2023-05-09T05:39:44.673Z,16.50
2023-05-09T05:42:14.691Z,16.50
2023-05-09T05:44:44.728Z,16.50
2023-05-09T05:47:16.045Z,16.50
2023-05-09T05:49:49.078Z,16.30
2023-05-09T05:52:19.193Z,16.30
2023-05-09T05:54:49.741Z,16.20
2023-05-09T05:57:19.930Z,16.00
2023-05-09T05:59:50.877Z,16.00
2023-05-09T06:02:21.364Z,15.90
2023-05-09T06:04:55.938Z,15.80
2023-05-09T06:07:27.240Z,15.70
2023-05-09T06:09:57.218Z,15.80
2023-05-09T06:12:28.140Z,15.90
2023-05-09T06:14:58.152Z,16.00
2023-05-09T06:17:28.224Z,16.30
2023-05-09T06:20:01.770Z,16.80
2023-05-09T06:22:31.652Z,17.10
2023-05-09T06:27:32.491Z,18.90
2023-05-09T06:30:08.333Z,19.10
2023-05-09T06:32:44.404Z,19.80
2023-05-09T06:35:17.517Z,21.20
2023-05-09T06:37:48.872Z,22.30
2023-05-09T06:40:19.310Z,24.10
2023-05-09T06:45:19.951Z,28.10
2023-05-09T06:47:50.063Z,28.40
2023-05-09T06:50:22.790Z,29.60
2023-05-09T06:52:52.733Z,30.30
2023-05-09T06:55:22.734Z,29.10
2023-05-09T06:57:52.693Z,29.40
2023-05-09T07:00:23.677Z,28.50
2023-05-09T07:02:53.672Z,27.60
2023-05-09T07:05:26.301Z,26.60
2023-05-09T07:07:57.111Z,26.90
2023-05-09T07:10:27.179Z,28.40
2023-05-09T07:12:57.236Z,29.00
2023-05-09T07:15:40.670Z,28.60
2023-05-09T07:18:12.287Z,28.50
2023-05-09T07:20:44.830Z,28.90
2023-05-09T07:23:14.738Z,30.60
2023-05-09T07:25:45.356Z,31.40
2023-05-09T07:28:15.252Z,31.80
2023-05-09T07:30:46.079Z,30.80
2023-05-09T07:33:15.966Z,29.80
2023-05-09T07:35:48.605Z,28.70
2023-05-09T07:38:18.527Z,28.40
2023-05-09T07:40:48.463Z,29.10
2023-05-09T07:43:18.348Z,30.70
2023-05-09T07:45:48.397Z,31.90
2023-05-09T07:48:18.611Z,31.80
2023-05-09T07:50:51.114Z,31.50
2023-05-09T07:53:21.006Z,30.50
2023-05-09T07:55:50.965Z,31.00
2023-05-09T07:58:20.968Z,30.20
2023-05-09T08:00:50.973Z,30.50
2023-05-09T08:03:21.144Z,31.10
2023-05-09T08:05:56.386Z,32.40
2023-05-09T08:08:27.284Z,31.90
2023-05-09T08:10:57.237Z,31.40
2023-05-09T08:13:27.427Z,31.10
2023-05-09T08:15:57.346Z,31.00
2023-05-09T08:18:27.262Z,31.40
2023-05-09T08:20:59.988Z,32.00
2023-05-09T08:23:30.478Z,31.00
2023-05-09T08:26:00.474Z,30.50
2023-05-09T08:28:31.189Z,31.20
2023-05-09T08:31:01.099Z,30.90
2023-05-09T08:33:31.052Z,30.80
2023-05-09T08:36:03.636Z,30.00
2023-05-09T08:38:33.831Z,29.40
2023-05-09T08:41:04.194Z,27.80
2023-05-09T08:43:36.807Z,27.90
2023-05-09T08:46:12.122Z,28.70
2023-05-09T08:48:43.005Z,29.90
2023-05-09T08:51:16.255Z,30.90
2023-05-09T08:53:46.714Z,32.10
2023-05-09T08:56:17.342Z,31.40
2023-05-09T08:58:47.760Z,30.40
2023-05-09T09:01:18.946Z,31.10
2023-05-09T09:03:50.203Z,30.90
2023-05-09T09:06:26.193Z,30.60
2023-05-09T09:08:58.042Z,31.90
2023-05-09T09:11:28.773Z,32.20
2023-05-09T09:14:01.981Z,31.50
2023-05-09T09:21:36.663Z,34.20
2023-05-09T09:24:09.089Z,34.10
2023-05-09T09:26:49.175Z,34.00
2023-05-09T09:29:21.137Z,34.10
2023-05-09T09:31:56.462Z,34.50
2023-05-09T09:34:27.016Z,34.70
2023-05-09T09:36:59.656Z,34.20
2023-05-09T09:39:29.616Z,33.00
2023-05-09T09:41:59.497Z,31.90
2023-05-09T09:44:30.666Z,31.20
2023-05-09T09:47:01.255Z,30.80
2023-05-09T09:49:31.344Z,32.00
2023-05-09T09:52:03.805Z,32.30
2023-05-09T09:54:34.883Z,33.00
2023-05-09T09:57:04.816Z,34.50
2023-05-09T09:59:34.782Z,33.20
2023-05-09T10:02:08.459Z,32.40
2023-05-09T10:04:41.648Z,32.30
2023-05-09T10:07:15.267Z,32.50
2023-05-09T10:09:45.703Z,33.00
2023-05-09T10:12:19.859Z,31.80
2023-05-09T10:14:51.442Z,30.40
2023-05-09T10:17:25.174Z,29.90
2023-05-09T10:19:55.851Z,29.40
2023-05-09T10:22:28.870Z,28.90
2023-05-09T10:25:04.664Z,29.00
2023-05-09T10:27:37.992Z,29.30
2023-05-09T10:30:11.947Z,28.90
2023-05-09T10:32:46.326Z,29.20
2023-05-09T10:35:17.513Z,30.50
2023-05-09T10:37:51.107Z,31.80
2023-05-09T10:40:22.480Z,33.30
2023-05-09T10:42:52.666Z,34.30
2023-05-09T10:45:23.606Z,34.50
2023-05-09T10:47:56.661Z,34.00
2023-05-09T10:50:27.881Z,34.50
2023-05-09T10:53:17.317Z,34.80
2023-05-09T10:55:55.688Z,34.70
2023-05-09T10:58:28.549Z,34.30
2023-05-09T11:00:59.724Z,34.70
2023-05-09T11:03:31.365Z,35.80
2023-05-09T11:06:01.658Z,36.20
2023-05-09T11:08:34.423Z,36.90
2023-05-09T11:11:10.063Z,37.00
2023-05-09T11:13:40.861Z,36.90
2023-05-09T11:16:15.042Z,36.20
2023-05-09T11:18:55.986Z,33.90
2023-05-09T11:21:26.348Z,33.60
2023-05-09T11:23:58.877Z,34.20
2023-05-09T11:26:32.588Z,34.50
2023-05-09T11:29:03.060Z,33.50
2023-05-09T11:31:33.240Z,32.60
2023-05-09T11:34:06.544Z,31.40
2023-05-09T11:36:37.100Z,30.30
2023-05-09T11:39:12.377Z,29.70
2023-05-09T11:41:43.988Z,29.50
2023-05-09T11:44:18.662Z,29.60
2023-05-09T11:46:49.541Z,29.70
2023-05-09T11:49:20.635Z,29.40
2023-05-09T11:51:50.561Z,28.40
2023-05-09T11:54:26.438Z,28.20
2023-05-09T11:56:56.674Z,28.70
2023-05-09T11:59:26.793Z,29.90
2023-05-09T12:01:57.315Z,30.50
2023-05-09T12:04:27.756Z,30.20
2023-05-09T12:06:57.634Z,30.20
2023-05-09T12:09:33.779Z,31.70
2023-05-09T12:12:04.290Z,32.10
2023-05-09T12:14:37.381Z,31.60
2023-05-09T12:17:07.306Z,30.60
2023-05-09T12:19:37.323Z,30.30
2023-05-09T12:22:08.679Z,31.10
2023-05-09T12:24:41.220Z,31.90
2023-05-09T12:27:11.233Z,32.00
2023-05-09T12:29:46.106Z,30.70
2023-05-09T12:32:16.944Z,30.90
2023-05-09T12:34:48.583Z,30.90
2023-05-09T12:37:19.779Z,30.80
2023-05-09T12:40:09.611Z,30.70
2023-05-09T12:42:39.641Z,30.10
2023-05-09T12:45:12.316Z,29.70
2023-05-09T12:47:42.670Z,30.20
2023-05-09T12:50:14.878Z,30.40
2023-05-09T12:52:58.538Z,29.90
2023-05-09T12:55:44.044Z,30.20
2023-05-09T12:58:17.721Z,30.50
2023-05-09T13:00:48.285Z,29.20
2023-05-09T13:03:25.619Z,29.50
2023-05-09T13:06:02.552Z,30.20
2023-05-09T13:08:33.253Z,30.70
2023-05-09T13:11:15.589Z,30.80
2023-05-09T13:13:46.945Z,30.80
2023-05-09T13:16:17.710Z,30.50
2023-05-09T13:18:48.163Z,30.10
2023-05-09T13:21:18.127Z,30.20
2023-05-09T13:23:50.273Z,29.70
2023-05-09T13:26:22.942Z,29.80
2023-05-09T13:28:52.946Z,29.80
2023-05-09T13:31:23.025Z,29.90
2023-05-09T13:33:53.617Z,29.30
2023-05-09T13:36:23.504Z,29.30
2023-05-09T13:38:53.507Z,29.80
2023-05-09T13:41:26.234Z,30.00
2023-05-09T13:43:56.123Z,29.60
2023-05-09T13:46:26.099Z,29.20
2023-05-09T13:48:55.997Z,28.90
2023-05-09T13:51:26.013Z,28.90
2023-05-09T13:53:55.883Z,29.00
2023-05-09T13:56:28.434Z,28.90
2023-05-09T13:58:58.316Z,28.20
2023-05-09T14:01:28.804Z,27.70
2023-05-09T14:03:58.783Z,27.90
2023-05-09T14:06:29.154Z,27.90
2023-05-09T14:08:59.199Z,27.40
2023-05-09T14:11:31.712Z,26.80
2023-05-09T14:14:01.726Z,26.50
2023-05-09T14:16:31.658Z,26.50
2023-05-09T14:19:01.632Z,26.40
2023-05-09T14:21:31.530Z,26.10
2023-05-09T14:24:01.407Z,25.70
2023-05-09T14:26:33.916Z,25.50
2023-05-09T14:29:03.817Z,25.10
2023-05-09T14:31:34.084Z,24.10
2023-05-09T14:34:05.385Z,21.90
2023-05-09T14:36:35.361Z,19.90
2023-05-09T14:39:06.267Z,18.20
2023-05-09T14:41:38.944Z,17.10
2023-05-09T14:44:08.850Z,16.80
2023-05-09T14:46:39.450Z,16.70
2023-05-09T14:49:09.683Z,16.50
2023-05-09T14:51:39.610Z,16.30
2023-05-09T14:54:09.648Z,16.10
2023-05-09T14:56:42.260Z,16.10
2023-05-09T14:59:12.338Z,16.30
2023-05-09T15:01:42.440Z,16.40
2023-05-09T15:04:12.616Z,16.40
2023-05-09T15:06:43.277Z,16.80
2023-05-09T15:09:13.235Z,17.40
2023-05-09T15:11:48.461Z,18.10
2023-05-09T15:14:19.303Z,19.00
2023-05-09T15:16:49.325Z,19.80
2023-05-09T15:19:19.267Z,20.60
2023-05-09T15:21:49.184Z,21.30
2023-05-09T15:24:19.131Z,21.70
2023-05-09T15:26:51.582Z,22.00
2023-05-09T15:29:21.888Z,22.40
2023-05-09T15:31:51.797Z,22.60
2023-05-09T15:34:22.492Z,22.60
2023-05-09T15:36:52.406Z,22.80
2023-05-09T15:39:22.600Z,22.90
2023-05-09T15:41:55.046Z,22.90
2023-05-09T15:44:24.939Z,23.00
2023-05-09T15:46:55.593Z,23.10
2023-05-09T15:49:25.477Z,23.00
2023-05-09T15:51:55.350Z,23.00
2023-05-09T15:54:26.411Z,22.80
2023-05-09T15:56:59.480Z,22.70
2023-05-09T15:59:30.084Z,22.50
2023-05-09T16:02:00.190Z,22.30
2023-05-09T16:04:30.156Z,22.20
2023-05-09T16:07:01.183Z,22.10
2023-05-09T16:09:31.088Z,22.10
2023-05-09T16:12:03.648Z,22.00
2023-05-09T16:14:33.645Z,21.90
2023-05-09T16:17:04.698Z,21.90
2023-05-09T16:19:36.845Z,21.90
2023-05-09T16:22:06.803Z,21.90
2023-05-09T16:24:37.518Z,21.60
2023-05-09T16:27:10.071Z,21.50
2023-05-09T16:29:40.105Z,21.50
2023-05-09T16:32:10.838Z,21.40
2023-05-09T16:34:41.257Z,21.40
2023-05-09T16:37:11.693Z,21.30
2023-05-09T16:39:41.938Z,21.20
2023-05-09T16:42:14.562Z,21.20
2023-05-09T16:44:44.974Z,21.20
2023-05-09T16:47:14.973Z,21.00
2023-05-09T16:49:44.873Z,20.80
2023-05-09T16:52:15.445Z,20.40
2023-05-09T16:54:45.431Z,19.90
2023-05-09T16:57:17.942Z,19.40
2023-05-09T16:59:48.109Z,18.70
2023-05-09T17:02:18.056Z,18.10
2023-05-09T17:04:48.040Z,17.30
2023-05-09T17:07:17.991Z,16.90
2023-05-09T17:09:48.797Z,16.80
2023-05-09T17:12:21.252Z,16.60
2023-05-09T17:14:51.391Z,16.50
2023-05-09T17:17:21.315Z,16.50
2023-05-09T17:19:51.246Z,16.60
2023-05-09T17:22:21.160Z,16.60
2023-05-09T17:24:51.083Z,16.70
2023-05-09T17:27:24.023Z,16.70
2023-05-09T17:29:53.919Z,16.80
2023-05-09T17:32:23.887Z,16.80
2023-05-09T17:34:54.538Z,16.60
2023-05-09T17:37:24.450Z,16.50
2023-05-09T17:39:54.461Z,16.50
2023-05-09T17:42:26.966Z,16.40
2023-05-09T17:44:56.976Z,16.30
2023-05-09T17:47:27.068Z,16.20
2023-05-09T17:49:57.095Z,16.20
2023-05-09T17:52:27.110Z,16.00
2023-05-09T17:54:57.041Z,16.00
2023-05-09T17:57:29.559Z,15.90
2023-05-09T18:00:00.487Z,15.80
2023-05-09T18:02:30.454Z,15.60
2023-05-09T18:05:00.480Z,15.60
2023-05-09T18:07:30.568Z,15.40
2023-05-09T18:10:00.483Z,15.20
2023-05-09T18:12:36.239Z,15.10
2023-05-09T18:15:08.590Z,15.00
2023-05-09T18:17:38.530Z,15.00
2023-05-09T18:20:10.277Z,15.00
2023-05-09T18:22:40.193Z,15.00
2023-05-09T18:25:10.864Z,14.90
2023-05-09T18:27:43.387Z,15.00
2023-05-09T18:30:14.436Z,15.00
2023-05-09T18:32:44.529Z,15.00
2023-05-09T18:35:14.441Z,15.10
2023-05-09T18:37:44.678Z,15.10
2023-05-09T18:40:16.404Z,15.10
2023-05-09T18:42:49.172Z,15.10
2023-05-09T18:45:19.119Z,15.20
2023-05-09T18:47:49.145Z,15.20
2023-05-09T18:50:19.376Z,15.20
2023-05-09T18:52:49.483Z,15.10
2023-05-09T18:55:19.993Z,15.10
2023-05-09T18:57:52.566Z,15.10
2023-05-09T19:00:22.542Z,15.20
2023-05-09T19:02:52.476Z,15.10
2023-05-09T19:05:22.641Z,15.20
2023-05-09T19:07:54.125Z,15.20
2023-05-09T19:10:24.426Z,15.10
2023-05-09T19:12:57.276Z,15.10
2023-05-09T19:15:28.252Z,15.10
2023-05-09T19:17:58.227Z,15.10
2023-05-09T19:20:29.748Z,15.10
2023-05-09T19:23:00.556Z,15.10
2023-05-09T19:25:33.980Z,15.20
2023-05-09T19:28:06.536Z,15.20
2023-05-09T19:30:36.562Z,15.20
2023-05-09T19:33:06.765Z,15.20
2023-05-09T19:35:37.765Z,15.20
2023-05-09T19:38:08.576Z,15.20
2023-05-09T19:40:38.472Z,15.20
2023-05-09T19:43:11.051Z,15.20
2023-05-09T19:45:40.974Z,15.20
2023-05-09T19:48:15.328Z,15.20
2023-05-09T19:50:45.392Z,15.10
2023-05-09T19:53:15.440Z,15.10
2023-05-09T19:55:47.094Z,15.10
2023-05-09T19:58:19.586Z,15.20
2023-05-09T20:00:49.573Z,15.10
2023-05-09T20:03:19.736Z,15.00
2023-05-09T20:05:49.783Z,14.90
2023-05-09T20:08:19.710Z,14.90
2023-05-09T20:10:49.824Z,14.90
2023-05-09T20:13:22.430Z,14.80
2023-05-09T20:15:52.664Z,14.80
2023-05-09T20:18:22.657Z,14.80
2023-05-09T20:20:54.052Z,14.80
2023-05-09T20:23:24.207Z,14.80
2023-05-09T20:25:54.148Z,14.80
2023-05-09T20:28:26.868Z,14.80
2023-05-09T20:30:56.857Z,14.70
2023-05-09T20:33:26.771Z,14.70
2023-05-09T20:35:56.696Z,14.70
2023-05-09T20:38:26.656Z,14.60
2023-05-09T20:40:56.596Z,14.60
2023-05-09T20:43:31.668Z,14.60
2023-05-09T20:46:01.939Z,14.60
2023-05-09T20:48:31.881Z,14.50
2023-05-09T20:51:01.823Z,14.50
2023-05-09T20:53:32.600Z,14.60
2023-05-09T20:56:02.495Z,14.50
2023-05-09T20:58:36.909Z,14.50
2023-05-09T21:01:06.873Z,14.50
2023-05-09T21:03:36.897Z,14.50
2023-05-09T21:06:07.508Z,14.50
2023-05-09T21:08:37.454Z,14.50
2023-05-09T21:11:07.673Z,14.50
2023-05-09T21:13:40.187Z,14.50
2023-05-09T21:16:10.183Z,14.50
2023-05-09T21:18:40.073Z,14.50
2023-05-09T21:21:10.552Z,14.50
2023-05-09T21:23:40.430Z,14.50
2023-05-09T21:26:10.434Z,14.50
2023-05-09T21:28:42.963Z,14.50
2023-05-09T21:31:12.866Z,14.50
2023-05-09T21:33:42.765Z,14.60
2023-05-09T21:36:12.744Z,14.60
2023-05-09T21:38:42.629Z,14.60
2023-05-09T21:41:12.917Z,14.50
2023-05-09T21:43:45.818Z,14.50
2023-05-09T21:46:15.758Z,14.50
2023-05-09T21:48:45.791Z,14.50
2023-05-09T21:51:15.715Z,14.40
2023-05-09T21:53:45.850Z,14.30
2023-05-09T21:56:15.741Z,14.40
2023-05-09T21:58:48.231Z,14.40
2023-05-09T22:01:18.811Z,14.40
2023-05-09T22:03:49.070Z,14.40
2023-05-09T22:06:19.085Z,14.30
2023-05-09T22:08:48.989Z,14.40
2023-05-09T22:11:18.873Z,14.40
2023-05-09T22:13:51.404Z,14.30
2023-05-09T22:16:22.552Z,14.40
2023-05-09T22:18:52.507Z,14.30
2023-05-09T22:21:22.776Z,14.30
2023-05-09T22:23:52.737Z,14.20
2023-05-09T22:26:22.683Z,14.30
2023-05-09T22:28:55.207Z,14.20
2023-05-09T22:31:25.238Z,14.20
2023-05-09T22:33:55.306Z,14.20
2023-05-09T22:36:25.240Z,14.10
2023-05-09T22:38:55.239Z,14.20
2023-05-09T22:41:25.240Z,14.10
2023-05-09T22:43:57.774Z,14.10
2023-05-09T22:46:27.877Z,14.10
2023-05-09T22:48:57.908Z,14.10
2023-05-09T22:51:27.969Z,14.10
2023-05-09T22:53:57.851Z,14.00
2023-05-09T22:56:28.025Z,14.00
2023-05-09T22:59:00.803Z,14.00
2023-05-09T23:01:31.444Z,14.00
2023-05-09T23:04:01.840Z,14.00
2023-05-09T23:06:31.884Z,14.00
2023-05-09T23:09:01.966Z,14.00
2023-05-09T23:11:32.168Z,14.00
2023-05-09T23:14:04.817Z,14.10
2023-05-09T23:16:34.738Z,14.00
2023-05-09T23:19:04.657Z,13.90
2023-05-09T23:21:34.606Z,13.90
2023-05-09T23:24:04.668Z,14.00
2023-05-09T23:26:34.565Z,13.90
2023-05-09T23:29:07.174Z,13.90
2023-05-09T23:31:37.107Z,13.90
2023-05-09T23:34:07.030Z,13.90
2023-05-09T23:36:36.929Z,13.90
2023-05-09T23:39:07.098Z,13.90
2023-05-09T23:41:37.173Z,13.90
2023-05-09T23:44:09.863Z,13.90
2023-05-09T23:46:39.795Z,13.90
2023-05-09T23:49:09.850Z,13.90
2023-05-09T23:51:39.817Z,13.90
2023-05-09T23:54:09.815Z,13.80
2023-05-09T23:56:39.729Z,13.90
2023-05-09T23:59:12.380Z,13.80
